sensor_id;sensor_type;location;lat;lon;timestamp;P1;durP1;ratioP1;P2;durP2;ratioP2
16998;SDS011;10211;49.476;11.010;2022-10-24T00:02:17;7.90;;;1.53;;
16998;SDS011;10211;49.476;11.010;2022-10-24T00:04:45;3.70;;;0.87;;
16998;SDS011;10211;49.476;11.010;2022-10-24T00:07:11;4.40;;;0.90;;
16998;SDS011;10211;49.476;11.010;2022-10-24T00:09:40;3.20;;;1.00;;
16998;SDS011;10211;49.476;11.010;2022-10-24T00:12:08;3.40;;;1.10;;
16998;SDS011;10211;49.476;11.010;2022-10-24T00:14:36;2.07;;;0.90;;
16998;SDS011;10211;49.476;11.010;2022-10-24T00:17:03;1.50;;;0.93;;
16998;SDS011;10211;49.476;11.010;2022-10-24T00:19:31;3.50;;;0.80;;
16998;SDS011;10211;49.476;11.010;2022-10-24T00:21:58;1.77;;;0.70;;
16998;SDS011;10211;49.476;11.010;2022-10-24T00:24:25;5.37;;;0.90;;
16998;SDS011;10211;49.476;11.010;2022-10-24T00:26:52;3.63;;;0.63;;
16998;SDS011;10211;49.476;11.010;2022-10-24T00:29:19;4.27;;;1.13;;
16998;SDS011;10211;49.476;11.010;2022-10-24T00:31:47;3.57;;;1.03;;
16998;SDS011;10211;49.476;11.010;2022-10-24T00:34:14;1.60;;;0.67;;
16998;SDS011;10211;49.476;11.010;2022-10-24T00:36:44;5.20;;;0.80;;
16998;SDS011;10211;49.476;11.010;2022-10-24T00:39:13;4.03;;;1.23;;
16998;SDS011;10211;49.476;11.010;2022-10-24T00:41:40;3.47;;;0.90;;
16998;SDS011;10211;49.476;11.010;2022-10-24T00:44:11;1.07;;;0.63;;
16998;SDS011;10211;49.476;11.010;2022-10-24T00:46:45;6.90;;;1.30;;
16998;SDS011;10211;49.476;11.010;2022-10-24T00:49:18;3.00;;;0.93;;
16998;SDS011;10211;49.476;11.010;2022-10-24T00:51:52;2.60;;;0.80;;
16998;SDS011;10211;49.476;11.010;2022-10-24T00:54:22;3.10;;;0.90;;
16998;SDS011;10211;49.476;11.010;2022-10-24T00:56:52;5.23;;;1.20;;
16998;SDS011;10211;49.476;11.010;2022-10-24T00:59:26;3.73;;;0.70;;
16998;SDS011;10211;49.476;11.010;2022-10-24T01:01:57;3.70;;;0.90;;
16998;SDS011;10211;49.476;11.010;2022-10-24T01:04:24;1.63;;;0.90;;
16998;SDS011;10211;49.476;11.010;2022-10-24T01:06:55;4.70;;;1.00;;
16998;SDS011;10211;49.476;11.010;2022-10-24T01:09:36;3.33;;;1.10;;
16998;SDS011;10211;49.476;11.010;2022-10-24T01:12:18;2.83;;;0.90;;
16998;SDS011;10211;49.476;11.010;2022-10-24T01:14:54;6.07;;;1.63;;
16998;SDS011;10211;49.476;11.010;2022-10-24T01:17:34;1.83;;;0.80;;
16998;SDS011;10211;49.476;11.010;2022-10-24T01:23:13;1.83;;;0.80;;
16998;SDS011;10211;49.476;11.010;2022-10-24T01:26:08;2.83;;;0.90;;
16998;SDS011;10211;49.476;11.010;2022-10-24T01:28:52;4.13;;;0.97;;
16998;SDS011;10211;49.476;11.010;2022-10-24T01:31:33;4.70;;;0.80;;
16998;SDS011;10211;49.476;11.010;2022-10-24T01:34:14;1.17;;;0.60;;
16998;SDS011;10211;49.476;11.010;2022-10-24T01:36:46;1.40;;;0.80;;
16998;SDS011;10211;49.476;11.010;2022-10-24T01:39:19;5.77;;;0.73;;
16998;SDS011;10211;49.476;11.010;2022-10-24T01:41:47;1.33;;;1.00;;
16998;SDS011;10211;49.476;11.010;2022-10-24T01:44:28;1.47;;;0.70;;
16998;SDS011;10211;49.476;11.010;2022-10-24T01:47:02;4.67;;;0.90;;
16998;SDS011;10211;49.476;11.010;2022-10-24T01:49:33;2.43;;;1.10;;
16998;SDS011;10211;49.476;11.010;2022-10-24T01:52:04;7.20;;;1.13;;
16998;SDS011;10211;49.476;11.010;2022-10-24T01:54:36;4.10;;;1.27;;
16998;SDS011;10211;49.476;11.010;2022-10-24T01:57:05;3.10;;;0.83;;
16998;SDS011;10211;49.476;11.010;2022-10-24T01:59:39;3.53;;;1.23;;
16998;SDS011;10211;49.476;11.010;2022-10-24T02:02:11;6.93;;;0.90;;
16998;SDS011;10211;49.476;11.010;2022-10-24T02:04:44;3.63;;;0.90;;
16998;SDS011;10211;49.476;11.010;2022-10-24T02:07:15;2.47;;;0.70;;
16998;SDS011;10211;49.476;11.010;2022-10-24T02:09:44;3.83;;;0.70;;
16998;SDS011;10211;49.476;11.010;2022-10-24T02:12:13;3.00;;;0.80;;
16998;SDS011;10211;49.476;11.010;2022-10-24T02:14:43;1.20;;;1.10;;
16998;SDS011;10211;49.476;11.010;2022-10-24T02:17:14;3.27;;;0.80;;
16998;SDS011;10211;49.476;11.010;2022-10-24T02:19:42;1.07;;;0.93;;
16998;SDS011;10211;49.476;11.010;2022-10-24T02:22:13;3.70;;;0.80;;
16998;SDS011;10211;49.476;11.010;2022-10-24T02:24:49;4.43;;;0.70;;
16998;SDS011;10211;49.476;11.010;2022-10-24T02:27:20;3.10;;;1.00;;
16998;SDS011;10211;49.476;11.010;2022-10-24T02:29:51;5.33;;;1.00;;
16998;SDS011;10211;49.476;11.010;2022-10-24T02:32:26;6.50;;;1.17;;
16998;SDS011;10211;49.476;11.010;2022-10-24T02:34:55;1.37;;;1.13;;
16998;SDS011;10211;49.476;11.010;2022-10-24T02:37:24;5.23;;;0.77;;
16998;SDS011;10211;49.476;11.010;2022-10-24T02:40:02;4.80;;;1.00;;
16998;SDS011;10211;49.476;11.010;2022-10-24T02:42:33;2.27;;;0.87;;
16998;SDS011;10211;49.476;11.010;2022-10-24T02:45:02;2.53;;;1.20;;
16998;SDS011;10211;49.476;11.010;2022-10-24T02:47:33;3.20;;;0.90;;
16998;SDS011;10211;49.476;11.010;2022-10-24T02:50:00;3.37;;;1.03;;
16998;SDS011;10211;49.476;11.010;2022-10-24T02:52:27;3.23;;;0.73;;
16998;SDS011;10211;49.476;11.010;2022-10-24T02:54:55;3.17;;;1.23;;
16998;SDS011;10211;49.476;11.010;2022-10-24T02:57:21;2.63;;;1.20;;
16998;SDS011;10211;49.476;11.010;2022-10-24T02:59:50;2.80;;;0.93;;
16998;SDS011;10211;49.476;11.010;2022-10-24T03:02:21;4.23;;;1.77;;
16998;SDS011;10211;49.476;11.010;2022-10-24T03:04:50;5.83;;;1.00;;
16998;SDS011;10211;49.476;11.010;2022-10-24T03:07:18;3.47;;;1.10;;
16998;SDS011;10211;49.476;11.010;2022-10-24T03:09:45;3.70;;;1.63;;
16998;SDS011;10211;49.476;11.010;2022-10-24T03:12:12;4.10;;;1.13;;
16998;SDS011;10211;49.476;11.010;2022-10-24T03:14:40;2.10;;;0.83;;
16998;SDS011;10211;49.476;11.010;2022-10-24T03:17:08;2.50;;;1.63;;
16998;SDS011;10211;49.476;11.010;2022-10-24T03:19:35;5.43;;;1.00;;
16998;SDS011;10211;49.476;11.010;2022-10-24T03:22:04;4.30;;;0.90;;
16998;SDS011;10211;49.476;11.010;2022-10-24T03:24:30;2.80;;;1.20;;
16998;SDS011;10211;49.476;11.010;2022-10-24T03:26:57;4.23;;;1.33;;
16998;SDS011;10211;49.476;11.010;2022-10-24T03:29:24;2.63;;;1.37;;
16998;SDS011;10211;49.476;11.010;2022-10-24T03:31:51;2.27;;;1.80;;
16998;SDS011;10211;49.476;11.010;2022-10-24T03:34:17;2.03;;;1.30;;
16998;SDS011;10211;49.476;11.010;2022-10-24T03:36:44;2.47;;;1.20;;
16998;SDS011;10211;49.476;11.010;2022-10-24T03:39:12;2.57;;;1.27;;
16998;SDS011;10211;49.476;11.010;2022-10-24T03:41:39;6.53;;;1.97;;
16998;SDS011;10211;49.476;11.010;2022-10-24T03:44:06;5.07;;;1.30;;
16998;SDS011;10211;49.476;11.010;2022-10-24T03:46:34;5.20;;;1.60;;
16998;SDS011;10211;49.476;11.010;2022-10-24T03:49:01;3.93;;;1.37;;
16998;SDS011;10211;49.476;11.010;2022-10-24T03:51:29;2.43;;;1.50;;
16998;SDS011;10211;49.476;11.010;2022-10-24T03:53:56;2.30;;;1.37;;
16998;SDS011;10211;49.476;11.010;2022-10-24T03:56:24;3.77;;;1.40;;
16998;SDS011;10211;49.476;11.010;2022-10-24T03:58:51;3.93;;;1.93;;
16998;SDS011;10211;49.476;11.010;2022-10-24T04:01:18;8.60;;;1.77;;
16998;SDS011;10211;49.476;11.010;2022-10-24T04:03:45;3.07;;;1.30;;
16998;SDS011;10211;49.476;11.010;2022-10-24T04:06:12;8.00;;;2.00;;
16998;SDS011;10211;49.476;11.010;2022-10-24T04:08:39;4.70;;;1.67;;
16998;SDS011;10211;49.476;11.010;2022-10-24T04:11:06;2.73;;;1.23;;
16998;SDS011;10211;49.476;11.010;2022-10-24T04:13:35;11.80;;;1.70;;
16998;SDS011;10211;49.476;11.010;2022-10-24T04:16:02;5.20;;;1.37;;
16998;SDS011;10211;49.476;11.010;2022-10-24T04:18:29;3.67;;;1.10;;
16998;SDS011;10211;49.476;11.010;2022-10-24T04:20:55;3.90;;;1.37;;
16998;SDS011;10211;49.476;11.010;2022-10-24T04:23:22;2.17;;;1.37;;
16998;SDS011;10211;49.476;11.010;2022-10-24T04:25:49;4.80;;;1.67;;
16998;SDS011;10211;49.476;11.010;2022-10-24T04:28:16;5.63;;;2.03;;
16998;SDS011;10211;49.476;11.010;2022-10-24T04:30:44;7.70;;;2.33;;
16998;SDS011;10211;49.476;11.010;2022-10-24T04:33:12;4.00;;;2.50;;
16998;SDS011;10211;49.476;11.010;2022-10-24T04:35:39;3.30;;;2.40;;
16998;SDS011;10211;49.476;11.010;2022-10-24T04:38:11;9.33;;;2.83;;
16998;SDS011;10211;49.476;11.010;2022-10-24T04:40:39;8.23;;;2.90;;
16998;SDS011;10211;49.476;11.010;2022-10-24T04:43:06;6.70;;;3.70;;
16998;SDS011;10211;49.476;11.010;2022-10-24T04:45:33;8.90;;;2.30;;
16998;SDS011;10211;49.476;11.010;2022-10-24T04:48:02;5.03;;;2.13;;
16998;SDS011;10211;49.476;11.010;2022-10-24T04:50:29;6.53;;;2.03;;
16998;SDS011;10211;49.476;11.010;2022-10-24T04:52:56;4.87;;;1.70;;
16998;SDS011;10211;49.476;11.010;2022-10-24T04:55:22;5.07;;;1.70;;
16998;SDS011;10211;49.476;11.010;2022-10-24T04:57:49;3.70;;;1.70;;
16998;SDS011;10211;49.476;11.010;2022-10-24T05:00:16;4.50;;;2.07;;
16998;SDS011;10211;49.476;11.010;2022-10-24T05:02:43;3.63;;;1.37;;
16998;SDS011;10211;49.476;11.010;2022-10-24T05:05:13;5.00;;;1.97;;
16998;SDS011;10211;49.476;11.010;2022-10-24T05:07:41;5.00;;;1.50;;
16998;SDS011;10211;49.476;11.010;2022-10-24T05:10:09;2.43;;;1.57;;
16998;SDS011;10211;49.476;11.010;2022-10-24T05:12:36;3.63;;;1.50;;
16998;SDS011;10211;49.476;11.010;2022-10-24T05:15:03;4.07;;;1.27;;
16998;SDS011;10211;49.476;11.010;2022-10-24T05:17:31;5.43;;;1.53;;
16998;SDS011;10211;49.476;11.010;2022-10-24T05:19:58;7.03;;;1.87;;
16998;SDS011;10211;49.476;11.010;2022-10-24T05:22:26;2.07;;;1.37;;
16998;SDS011;10211;49.476;11.010;2022-10-24T05:24:53;7.03;;;2.10;;
16998;SDS011;10211;49.476;11.010;2022-10-24T05:27:20;4.13;;;1.83;;
16998;SDS011;10211;49.476;11.010;2022-10-24T05:29:48;5.17;;;1.63;;
16998;SDS011;10211;49.476;11.010;2022-10-24T05:32:15;6.13;;;1.73;;
16998;SDS011;10211;49.476;11.010;2022-10-24T05:34:42;4.90;;;2.00;;
16998;SDS011;10211;49.476;11.010;2022-10-24T05:37:09;4.23;;;2.07;;
16998;SDS011;10211;49.476;11.010;2022-10-24T05:39:37;9.67;;;2.53;;
16998;SDS011;10211;49.476;11.010;2022-10-24T05:42:04;5.47;;;2.30;;
16998;SDS011;10211;49.476;11.010;2022-10-24T05:44:31;7.83;;;2.40;;
16998;SDS011;10211;49.476;11.010;2022-10-24T05:46:58;6.53;;;2.13;;
16998;SDS011;10211;49.476;11.010;2022-10-24T05:49:25;6.33;;;2.17;;
16998;SDS011;10211;49.476;11.010;2022-10-24T05:51:52;5.20;;;2.10;;
16998;SDS011;10211;49.476;11.010;2022-10-24T05:54:18;4.50;;;2.43;;
16998;SDS011;10211;49.476;11.010;2022-10-24T05:56:47;5.03;;;2.70;;
16998;SDS011;10211;49.476;11.010;2022-10-24T05:59:14;7.07;;;2.00;;
16998;SDS011;10211;49.476;11.010;2022-10-24T06:01:41;9.43;;;2.07;;
16998;SDS011;10211;49.476;11.010;2022-10-24T06:04:08;7.60;;;2.10;;
16998;SDS011;10211;49.476;11.010;2022-10-24T06:06:36;7.60;;;1.60;;
16998;SDS011;10211;49.476;11.010;2022-10-24T06:09:04;9.17;;;1.83;;
16998;SDS011;10211;49.476;11.010;2022-10-24T06:11:30;8.60;;;2.13;;
16998;SDS011;10211;49.476;11.010;2022-10-24T06:13:59;7.93;;;1.97;;
16998;SDS011;10211;49.476;11.010;2022-10-24T06:16:27;4.27;;;2.20;;
16998;SDS011;10211;49.476;11.010;2022-10-24T06:18:55;4.47;;;2.00;;
16998;SDS011;10211;49.476;11.010;2022-10-24T06:21:22;3.37;;;1.70;;
16998;SDS011;10211;49.476;11.010;2022-10-24T06:23:50;3.13;;;1.67;;
16998;SDS011;10211;49.476;11.010;2022-10-24T06:26:16;7.60;;;2.00;;
16998;SDS011;10211;49.476;11.010;2022-10-24T06:28:43;5.60;;;1.70;;
16998;SDS011;10211;49.476;11.010;2022-10-24T06:31:13;5.70;;;1.83;;
16998;SDS011;10211;49.476;11.010;2022-10-24T06:33:40;5.40;;;2.10;;
16998;SDS011;10211;49.476;11.010;2022-10-24T06:36:07;7.33;;;1.60;;
16998;SDS011;10211;49.476;11.010;2022-10-24T06:38:34;8.27;;;2.17;;
16998;SDS011;10211;49.476;11.010;2022-10-24T06:41:04;6.73;;;1.47;;
16998;SDS011;10211;49.476;11.010;2022-10-24T06:43:32;7.63;;;2.33;;
16998;SDS011;10211;49.476;11.010;2022-10-24T06:45:59;5.03;;;2.10;;
16998;SDS011;10211;49.476;11.010;2022-10-24T06:48:32;7.80;;;1.70;;
16998;SDS011;10211;49.476;11.010;2022-10-24T06:50:59;6.10;;;2.00;;
16998;SDS011;10211;49.476;11.010;2022-10-24T06:53:26;5.23;;;1.43;;
16998;SDS011;10211;49.476;11.010;2022-10-24T06:55:58;6.17;;;2.10;;
16998;SDS011;10211;49.476;11.010;2022-10-24T06:58:29;6.73;;;2.10;;
16998;SDS011;10211;49.476;11.010;2022-10-24T07:00:57;5.90;;;1.80;;
16998;SDS011;10211;49.476;11.010;2022-10-24T07:03:25;4.37;;;1.90;;
16998;SDS011;10211;49.476;11.010;2022-10-24T07:05:53;6.47;;;1.57;;
16998;SDS011;10211;49.476;11.010;2022-10-24T07:08:21;4.57;;;2.67;;
16998;SDS011;10211;49.476;11.010;2022-10-24T07:10:48;6.17;;;1.80;;
16998;SDS011;10211;49.476;11.010;2022-10-24T07:13:15;7.53;;;3.30;;
16998;SDS011;10211;49.476;11.010;2022-10-24T07:15:42;5.07;;;2.83;;
16998;SDS011;10211;49.476;11.010;2022-10-24T07:18:12;6.17;;;2.50;;
16998;SDS011;10211;49.476;11.010;2022-10-24T07:20:40;3.23;;;1.27;;
16998;SDS011;10211;49.476;11.010;2022-10-24T07:23:08;7.07;;;1.43;;
16998;SDS011;10211;49.476;11.010;2022-10-24T07:25:36;4.13;;;1.47;;
16998;SDS011;10211;49.476;11.010;2022-10-24T07:28:03;6.17;;;1.50;;
16998;SDS011;10211;49.476;11.010;2022-10-24T07:30:31;5.37;;;1.70;;
16998;SDS011;10211;49.476;11.010;2022-10-24T07:32:58;5.40;;;1.43;;
16998;SDS011;10211;49.476;11.010;2022-10-24T07:35:25;9.07;;;2.23;;
16998;SDS011;10211;49.476;11.010;2022-10-24T07:37:52;4.70;;;1.60;;
16998;SDS011;10211;49.476;11.010;2022-10-24T07:40:20;4.10;;;1.50;;
16998;SDS011;10211;49.476;11.010;2022-10-24T07:42:47;2.13;;;1.17;;
16998;SDS011;10211;49.476;11.010;2022-10-24T07:45:14;1.77;;;1.10;;
16998;SDS011;10211;49.476;11.010;2022-10-24T07:47:40;3.43;;;1.37;;
16998;SDS011;10211;49.476;11.010;2022-10-24T07:50:07;2.13;;;1.00;;
16998;SDS011;10211;49.476;11.010;2022-10-24T07:52:34;5.47;;;1.30;;
16998;SDS011;10211;49.476;11.010;2022-10-24T07:55:01;3.90;;;2.10;;
16998;SDS011;10211;49.476;11.010;2022-10-24T07:57:30;1.53;;;1.20;;
16998;SDS011;10211;49.476;11.010;2022-10-24T07:59:57;3.60;;;1.37;;
16998;SDS011;10211;49.476;11.010;2022-10-24T08:02:24;1.57;;;0.97;;
16998;SDS011;10211;49.476;11.010;2022-10-24T08:04:51;2.53;;;1.23;;
16998;SDS011;10211;49.476;11.010;2022-10-24T08:07:17;4.60;;;1.33;;
16998;SDS011;10211;49.476;11.010;2022-10-24T08:09:45;3.73;;;2.00;;
16998;SDS011;10211;49.476;11.010;2022-10-24T08:12:15;2.90;;;1.50;;
16998;SDS011;10211;49.476;11.010;2022-10-24T08:14:44;4.17;;;1.90;;
16998;SDS011;10211;49.476;11.010;2022-10-24T08:17:11;8.47;;;2.17;;
16998;SDS011;10211;49.476;11.010;2022-10-24T08:19:38;8.57;;;1.80;;
16998;SDS011;10211;49.476;11.010;2022-10-24T08:22:06;4.57;;;1.90;;
16998;SDS011;10211;49.476;11.010;2022-10-24T08:24:34;12.47;;;2.43;;
16998;SDS011;10211;49.476;11.010;2022-10-24T08:27:01;6.57;;;2.07;;
16998;SDS011;10211;49.476;11.010;2022-10-24T08:29:28;5.40;;;2.07;;
16998;SDS011;10211;49.476;11.010;2022-10-24T08:31:57;6.80;;;2.03;;
16998;SDS011;10211;49.476;11.010;2022-10-24T08:34:23;6.17;;;2.13;;
16998;SDS011;10211;49.476;11.010;2022-10-24T08:36:50;5.60;;;1.57;;
16998;SDS011;10211;49.476;11.010;2022-10-24T08:39:18;3.60;;;1.53;;
16998;SDS011;10211;49.476;11.010;2022-10-24T08:41:46;4.60;;;1.63;;
16998;SDS011;10211;49.476;11.010;2022-10-24T08:44:17;4.70;;;2.37;;
16998;SDS011;10211;49.476;11.010;2022-10-24T08:46:50;4.23;;;1.93;;
16998;SDS011;10211;49.476;11.010;2022-10-24T08:49:27;6.00;;;2.27;;
16998;SDS011;10211;49.476;11.010;2022-10-24T08:51:58;6.23;;;1.77;;
16998;SDS011;10211;49.476;11.010;2022-10-24T08:54:29;3.13;;;1.70;;
16998;SDS011;10211;49.476;11.010;2022-10-24T08:57:01;3.40;;;1.40;;
16998;SDS011;10211;49.476;11.010;2022-10-24T08:59:29;3.63;;;1.93;;
16998;SDS011;10211;49.476;11.010;2022-10-24T09:01:59;7.23;;;2.07;;
16998;SDS011;10211;49.476;11.010;2022-10-24T09:04:32;4.57;;;1.70;;
16998;SDS011;10211;49.476;11.010;2022-10-24T09:07:04;4.83;;;2.10;;
16998;SDS011;10211;49.476;11.010;2022-10-24T09:09:32;4.50;;;2.40;;
16998;SDS011;10211;49.476;11.010;2022-10-24T09:12:05;5.90;;;2.57;;
16998;SDS011;10211;49.476;11.010;2022-10-24T09:14:37;5.83;;;2.20;;
16998;SDS011;10211;49.476;11.010;2022-10-24T09:17:09;6.13;;;2.67;;
16998;SDS011;10211;49.476;11.010;2022-10-24T09:19:41;5.80;;;2.33;;
16998;SDS011;10211;49.476;11.010;2022-10-24T09:22:13;6.33;;;2.47;;
16998;SDS011;10211;49.476;11.010;2022-10-24T09:24:42;2.50;;;1.77;;
16998;SDS011;10211;49.476;11.010;2022-10-24T09:27:14;5.67;;;1.73;;
16998;SDS011;10211;49.476;11.010;2022-10-24T09:29:42;3.67;;;1.90;;
16998;SDS011;10211;49.476;11.010;2022-10-24T09:32:14;6.40;;;1.87;;
16998;SDS011;10211;49.476;11.010;2022-10-24T09:34:46;4.73;;;1.50;;
16998;SDS011;10211;49.476;11.010;2022-10-24T09:37:29;4.80;;;2.10;;
16998;SDS011;10211;49.476;11.010;2022-10-24T09:40:07;8.73;;;2.00;;
16998;SDS011;10211;49.476;11.010;2022-10-24T09:42:38;2.57;;;1.50;;
16998;SDS011;10211;49.476;11.010;2022-10-24T09:45:21;5.10;;;1.73;;
16998;SDS011;10211;49.476;11.010;2022-10-24T09:47:56;2.30;;;1.30;;
16998;SDS011;10211;49.476;11.010;2022-10-24T09:50:26;4.13;;;1.43;;
16998;SDS011;10211;49.476;11.010;2022-10-24T09:52:55;5.90;;;1.60;;
16998;SDS011;10211;49.476;11.010;2022-10-24T09:55:24;4.17;;;2.07;;
16998;SDS011;10211;49.476;11.010;2022-10-24T09:57:55;4.70;;;1.83;;
16998;SDS011;10211;49.476;11.010;2022-10-24T10:00:28;4.30;;;1.90;;
16998;SDS011;10211;49.476;11.010;2022-10-24T10:03:01;6.17;;;2.23;;
16998;SDS011;10211;49.476;11.010;2022-10-24T10:05:41;4.03;;;1.70;;
16998;SDS011;10211;49.476;11.010;2022-10-24T10:08:11;5.87;;;2.00;;
16998;SDS011;10211;49.476;11.010;2022-10-24T10:10:44;3.30;;;1.73;;
16998;SDS011;10211;49.476;11.010;2022-10-24T10:13:25;4.87;;;1.63;;
16998;SDS011;10211;49.476;11.010;2022-10-24T10:15:53;5.03;;;1.60;;
16998;SDS011;10211;49.476;11.010;2022-10-24T10:18:26;6.40;;;1.70;;
16998;SDS011;10211;49.476;11.010;2022-10-24T10:21:07;7.17;;;2.13;;
16998;SDS011;10211;49.476;11.010;2022-10-24T10:23:37;7.40;;;2.50;;
16998;SDS011;10211;49.476;11.010;2022-10-24T10:26:07;5.40;;;2.30;;
16998;SDS011;10211;49.476;11.010;2022-10-24T10:31:45;11.87;;;2.20;;
16998;SDS011;10211;49.476;11.010;2022-10-24T10:34:14;5.43;;;1.97;;
16998;SDS011;10211;49.476;11.010;2022-10-24T10:36:50;5.43;;;1.70;;
16998;SDS011;10211;49.476;11.010;2022-10-24T10:39:31;3.43;;;2.17;;
16998;SDS011;10211;49.476;11.010;2022-10-24T10:42:11;5.10;;;2.13;;
16998;SDS011;10211;49.476;11.010;2022-10-24T10:44:45;4.20;;;1.80;;
16998;SDS011;10211;49.476;11.010;2022-10-24T10:47:22;7.93;;;2.40;;
16998;SDS011;10211;49.476;11.010;2022-10-24T10:49:59;6.77;;;2.47;;
16998;SDS011;10211;49.476;11.010;2022-10-24T10:52:30;5.00;;;2.00;;
16998;SDS011;10211;49.476;11.010;2022-10-24T10:55:02;3.37;;;1.90;;
16998;SDS011;10211;49.476;11.010;2022-10-24T10:57:43;6.00;;;2.20;;
16998;SDS011;10211;49.476;11.010;2022-10-24T11:00:20;2.67;;;1.50;;
16998;SDS011;10211;49.476;11.010;2022-10-24T11:02:55;5.70;;;2.03;;
16998;SDS011;10211;49.476;11.010;2022-10-24T11:05:40;6.93;;;1.73;;
16998;SDS011;10211;49.476;11.010;2022-10-24T11:11:11;8.60;;;2.63;;
16998;SDS011;10211;49.476;11.010;2022-10-24T11:13:42;7.87;;;1.87;;
16998;SDS011;10211;49.476;11.010;2022-10-24T11:16:15;5.57;;;1.93;;
16998;SDS011;10211;49.476;11.010;2022-10-24T11:18:47;5.77;;;2.03;;
16998;SDS011;10211;49.476;11.010;2022-10-24T11:21:17;4.63;;;2.10;;
16998;SDS011;10211;49.476;11.010;2022-10-24T11:23:50;5.93;;;1.70;;
16998;SDS011;10211;49.476;11.010;2022-10-24T11:26:21;2.77;;;1.60;;
16998;SDS011;10211;49.476;11.010;2022-10-24T11:28:55;14.27;;;2.57;;
16998;SDS011;10211;49.476;11.010;2022-10-24T11:31:25;3.77;;;2.27;;
16998;SDS011;10211;49.476;11.010;2022-10-24T11:33:56;4.10;;;1.70;;
16998;SDS011;10211;49.476;11.010;2022-10-24T11:36:29;4.33;;;1.70;;
16998;SDS011;10211;49.476;11.010;2022-10-24T11:39:03;6.47;;;2.00;;
16998;SDS011;10211;49.476;11.010;2022-10-24T11:41:45;4.13;;;1.93;;
16998;SDS011;10211;49.476;11.010;2022-10-24T11:47:26;6.00;;;1.67;;
16998;SDS011;10211;49.476;11.010;2022-10-24T11:50:04;3.73;;;1.70;;
16998;SDS011;10211;49.476;11.010;2022-10-24T11:52:39;2.97;;;1.87;;
16998;SDS011;10211;49.476;11.010;2022-10-24T11:55:15;2.10;;;1.77;;
16998;SDS011;10211;49.476;11.010;2022-10-24T11:57:46;2.97;;;1.50;;
16998;SDS011;10211;49.476;11.010;2022-10-24T12:00:17;4.63;;;1.80;;
16998;SDS011;10211;49.476;11.010;2022-10-24T12:05:50;10.57;;;1.83;;
16998;SDS011;10211;49.476;11.010;2022-10-24T12:08:45;4.23;;;1.87;;
16998;SDS011;10211;49.476;11.010;2022-10-24T12:11:34;6.90;;;1.77;;
16998;SDS011;10211;49.476;11.010;2022-10-24T12:14:28;1.90;;;1.37;;
16998;SDS011;10211;49.476;11.010;2022-10-24T12:17:11;2.20;;;1.67;;
16998;SDS011;10211;49.476;11.010;2022-10-24T12:19:55;2.73;;;1.50;;
16998;SDS011;10211;49.476;11.010;2022-10-24T12:22:26;3.60;;;1.90;;
16998;SDS011;10211;49.476;11.010;2022-10-24T12:25:04;6.53;;;2.20;;
16998;SDS011;10211;49.476;11.010;2022-10-24T12:27:34;6.43;;;2.00;;
16998;SDS011;10211;49.476;11.010;2022-10-24T12:30:12;5.47;;;1.87;;
16998;SDS011;10211;49.476;11.010;2022-10-24T12:32:42;5.03;;;1.67;;
16998;SDS011;10211;49.476;11.010;2022-10-24T12:37:59;4.20;;;2.00;;
16998;SDS011;10211;49.476;11.010;2022-10-24T12:43:28;3.63;;;1.87;;
16998;SDS011;10211;49.476;11.010;2022-10-24T12:45:57;7.40;;;2.03;;
16998;SDS011;10211;49.476;11.010;2022-10-24T12:48:30;4.60;;;1.33;;
16998;SDS011;10211;49.476;11.010;2022-10-24T12:59:47;4.67;;;2.30;;
16998;SDS011;10211;49.476;11.010;2022-10-24T13:02:27;2.43;;;1.63;;
16998;SDS011;10211;49.476;11.010;2022-10-24T13:05:09;3.03;;;1.50;;
16998;SDS011;10211;49.476;11.010;2022-10-24T13:07:51;3.30;;;1.57;;
16998;SDS011;10211;49.476;11.010;2022-10-24T13:10:34;4.60;;;1.63;;
16998;SDS011;10211;49.476;11.010;2022-10-24T13:13:29;7.50;;;1.70;;
16998;SDS011;10211;49.476;11.010;2022-10-24T13:16:17;5.07;;;1.57;;
16998;SDS011;10211;49.476;11.010;2022-10-24T13:18:52;6.37;;;1.50;;
16998;SDS011;10211;49.476;11.010;2022-10-24T13:21:28;4.43;;;1.70;;
16998;SDS011;10211;49.476;11.010;2022-10-24T13:24:10;2.47;;;1.60;;
16998;SDS011;10211;49.476;11.010;2022-10-24T13:26:47;5.43;;;1.60;;
16998;SDS011;10211;49.476;11.010;2022-10-24T13:32:22;5.60;;;1.83;;
16998;SDS011;10211;49.476;11.010;2022-10-24T13:34:55;3.17;;;1.43;;
16998;SDS011;10211;49.476;11.010;2022-10-24T13:37:25;3.90;;;1.90;;
16998;SDS011;10211;49.476;11.010;2022-10-24T13:39:54;2.97;;;1.53;;
16998;SDS011;10211;49.476;11.010;2022-10-24T13:42:26;13.90;;;1.80;;
16998;SDS011;10211;49.476;11.010;2022-10-24T13:44:56;3.27;;;1.47;;
16998;SDS011;10211;49.476;11.010;2022-10-24T13:47:29;2.23;;;1.20;;
16998;SDS011;10211;49.476;11.010;2022-10-24T13:50:00;3.23;;;1.57;;
16998;SDS011;10211;49.476;11.010;2022-10-24T13:52:32;3.90;;;1.53;;
16998;SDS011;10211;49.476;11.010;2022-10-24T13:55:11;9.17;;;2.10;;
16998;SDS011;10211;49.476;11.010;2022-10-24T13:57:50;5.13;;;1.97;;
16998;SDS011;10211;49.476;11.010;2022-10-24T14:00:20;2.43;;;1.43;;
16998;SDS011;10211;49.476;11.010;2022-10-24T14:02:50;3.77;;;1.60;;
16998;SDS011;10211;49.476;11.010;2022-10-24T14:05:23;5.40;;;2.00;;
16998;SDS011;10211;49.476;11.010;2022-10-24T14:07:55;6.17;;;2.03;;
16998;SDS011;10211;49.476;11.010;2022-10-24T14:10:23;5.07;;;1.77;;
16998;SDS011;10211;49.476;11.010;2022-10-24T14:12:51;8.47;;;1.90;;
16998;SDS011;10211;49.476;11.010;2022-10-24T14:15:21;3.90;;;1.33;;
16998;SDS011;10211;49.476;11.010;2022-10-24T14:17:53;5.67;;;1.70;;
16998;SDS011;10211;49.476;11.010;2022-10-24T14:20:22;2.90;;;1.30;;
16998;SDS011;10211;49.476;11.010;2022-10-24T14:22:51;4.93;;;1.67;;
16998;SDS011;10211;49.476;11.010;2022-10-24T14:25:26;2.97;;;1.53;;
16998;SDS011;10211;49.476;11.010;2022-10-24T14:27:56;4.00;;;1.80;;
16998;SDS011;10211;49.476;11.010;2022-10-24T14:30:25;2.00;;;1.50;;
16998;SDS011;10211;49.476;11.010;2022-10-24T14:33:20;4.67;;;1.57;;
16998;SDS011;10211;49.476;11.010;2022-10-24T14:35:49;2.63;;;1.43;;
16998;SDS011;10211;49.476;11.010;2022-10-24T14:38:17;3.37;;;2.03;;
16998;SDS011;10211;49.476;11.010;2022-10-24T14:40:46;1.77;;;1.23;;
16998;SDS011;10211;49.476;11.010;2022-10-24T14:43:15;3.03;;;1.50;;
16998;SDS011;10211;49.476;11.010;2022-10-24T14:48:30;2.00;;;1.33;;
16998;SDS011;10211;49.476;11.010;2022-10-24T14:51:02;2.17;;;1.57;;
16998;SDS011;10211;49.476;11.010;2022-10-24T14:53:31;3.17;;;1.67;;
16998;SDS011;10211;49.476;11.010;2022-10-24T14:55:59;3.50;;;2.17;;
16998;SDS011;10211;49.476;11.010;2022-10-24T14:58:28;8.43;;;3.20;;
16998;SDS011;10211;49.476;11.010;2022-10-24T15:00:57;4.63;;;1.80;;
16998;SDS011;10211;49.476;11.010;2022-10-24T15:03:25;5.23;;;1.60;;
16998;SDS011;10211;49.476;11.010;2022-10-24T15:05:55;2.87;;;1.27;;
16998;SDS011;10211;49.476;11.010;2022-10-24T15:08:24;2.73;;;1.10;;
16998;SDS011;10211;49.476;11.010;2022-10-24T15:11:03;1.47;;;1.07;;
16998;SDS011;10211;49.476;11.010;2022-10-24T15:13:45;3.90;;;1.37;;
16998;SDS011;10211;49.476;11.010;2022-10-24T15:16:17;2.87;;;1.07;;
16998;SDS011;10211;49.476;11.010;2022-10-24T15:18:47;3.00;;;1.03;;
16998;SDS011;10211;49.476;11.010;2022-10-24T15:21:20;2.73;;;1.27;;
16998;SDS011;10211;49.476;11.010;2022-10-24T15:23:49;4.90;;;1.67;;
16998;SDS011;10211;49.476;11.010;2022-10-24T15:26:19;1.63;;;1.20;;
16998;SDS011;10211;49.476;11.010;2022-10-24T15:28:52;2.20;;;1.23;;
16998;SDS011;10211;49.476;11.010;2022-10-24T15:31:21;3.23;;;0.97;;